sensor_id;sensor_type;location;lat;lon;timestamp;P1;durP1;ratioP1;P2;durP2;ratioP2
16137;SDS011;8174;43.550;5.206;2022-08-25T00:02:10;5.45;;;3.40;;
16137;SDS011;8174;43.550;5.206;2022-08-25T00:04:37;7.65;;;3.30;;
16137;SDS011;8174;43.550;5.206;2022-08-25T00:07:05;5.25;;;3.20;;
16137;SDS011;8174;43.550;5.206;2022-08-25T00:09:33;7.20;;;3.53;;
16137;SDS011;8174;43.550;5.206;2022-08-25T00:12:01;5.55;;;3.50;;
16137;SDS011;8174;43.550;5.206;2022-08-25T00:14:32;6.28;;;3.45;;
16137;SDS011;8174;43.550;5.206;2022-08-25T00:17:00;5.65;;;3.40;;
16137;SDS011;8174;43.550;5.206;2022-08-25T00:19:29;8.60;;;3.58;;
16137;SDS011;8174;43.550;5.206;2022-08-25T00:21:58;6.57;;;3.10;;
16137;SDS011;8174;43.550;5.206;2022-08-25T00:24:26;8.02;;;3.25;;
16137;SDS011;8174;43.550;5.206;2022-08-25T00:26:54;5.80;;;3.47;;
16137;SDS011;8174;43.550;5.206;2022-08-25T00:29:23;6.05;;;3.35;;
16137;SDS011;8174;43.550;5.206;2022-08-25T00:31:52;4.80;;;3.20;;
16137;SDS011;8174;43.550;5.206;2022-08-25T00:34:21;5.68;;;3.08;;
16137;SDS011;8174;43.550;5.206;2022-08-25T00:36:49;4.25;;;3.03;;
16137;SDS011;8174;43.550;5.206;2022-08-25T00:39:18;6.57;;;3.30;;
16137;SDS011;8174;43.550;5.206;2022-08-25T00:41:49;4.82;;;3.20;;
16137;SDS011;8174;43.550;5.206;2022-08-25T00:44:17;5.20;;;3.30;;
16137;SDS011;8174;43.550;5.206;2022-08-25T00:46:45;10.07;;;3.60;;
16137;SDS011;8174;43.550;5.206;2022-08-25T00:49:15;6.50;;;3.38;;
16137;SDS011;8174;43.550;5.206;2022-08-25T00:51:45;6.25;;;3.40;;
16137;SDS011;8174;43.550;5.206;2022-08-25T00:54:14;4.95;;;3.42;;
16137;SDS011;8174;43.550;5.206;2022-08-25T00:56:42;4.55;;;3.28;;
16137;SDS011;8174;43.550;5.206;2022-08-25T00:59:10;6.18;;;3.80;;
16137;SDS011;8174;43.550;5.206;2022-08-25T01:01:39;6.88;;;3.50;;
16137;SDS011;8174;43.550;5.206;2022-08-25T01:04:07;5.30;;;3.88;;
16137;SDS011;8174;43.550;5.206;2022-08-25T01:06:37;7.07;;;3.88;;
16137;SDS011;8174;43.550;5.206;2022-08-25T01:09:05;5.40;;;3.38;;
16137;SDS011;8174;43.550;5.206;2022-08-25T01:11:33;5.88;;;3.47;;
16137;SDS011;8174;43.550;5.206;2022-08-25T01:14:01;6.95;;;3.70;;
16137;SDS011;8174;43.550;5.206;2022-08-25T01:16:31;6.57;;;3.45;;
16137;SDS011;8174;43.550;5.206;2022-08-25T01:18:59;8.35;;;3.50;;
16137;SDS011;8174;43.550;5.206;2022-08-25T01:21:30;4.75;;;3.45;;
16137;SDS011;8174;43.550;5.206;2022-08-25T01:23:58;6.03;;;3.60;;
16137;SDS011;8174;43.550;5.206;2022-08-25T01:26:27;6.63;;;4.15;;
16137;SDS011;8174;43.550;5.206;2022-08-25T01:28:55;9.27;;;4.10;;
16137;SDS011;8174;43.550;5.206;2022-08-25T01:31:40;6.90;;;3.67;;
16137;SDS011;8174;43.550;5.206;2022-08-25T01:34:08;7.03;;;3.58;;
16137;SDS011;8174;43.550;5.206;2022-08-25T01:36:38;5.55;;;3.40;;
16137;SDS011;8174;43.550;5.206;2022-08-25T01:39:06;6.22;;;3.30;;
16137;SDS011;8174;43.550;5.206;2022-08-25T01:41:35;6.05;;;3.05;;
16137;SDS011;8174;43.550;5.206;2022-08-25T01:44:06;6.10;;;3.40;;
16137;SDS011;8174;43.550;5.206;2022-08-25T01:46:34;6.70;;;3.35;;
16137;SDS011;8174;43.550;5.206;2022-08-25T01:49:02;8.90;;;3.03;;
16137;SDS011;8174;43.550;5.206;2022-08-25T01:51:32;5.20;;;3.38;;
16137;SDS011;8174;43.550;5.206;2022-08-25T01:54:02;4.38;;;3.17;;
16137;SDS011;8174;43.550;5.206;2022-08-25T01:56:30;7.82;;;3.20;;
16137;SDS011;8174;43.550;5.206;2022-08-25T01:58:57;7.03;;;3.45;;
16137;SDS011;8174;43.550;5.206;2022-08-25T02:01:25;6.57;;;3.13;;
16137;SDS011;8174;43.550;5.206;2022-08-25T02:03:53;5.32;;;3.15;;
16137;SDS011;8174;43.550;5.206;2022-08-25T02:06:22;5.55;;;3.08;;
16137;SDS011;8174;43.550;5.206;2022-08-25T02:08:51;5.75;;;3.40;;
16137;SDS011;8174;43.550;5.206;2022-08-25T02:11:20;7.32;;;3.25;;
16137;SDS011;8174;43.550;5.206;2022-08-25T02:13:49;5.72;;;3.42;;
16137;SDS011;8174;43.550;5.206;2022-08-25T02:16:18;7.60;;;3.33;;
16137;SDS011;8174;43.550;5.206;2022-08-25T02:18:47;5.13;;;3.28;;
16137;SDS011;8174;43.550;5.206;2022-08-25T02:21:15;4.82;;;3.15;;
16137;SDS011;8174;43.550;5.206;2022-08-25T02:23:43;4.85;;;3.50;;
16137;SDS011;8174;43.550;5.206;2022-08-25T02:26:12;5.40;;;3.40;;
16137;SDS011;8174;43.550;5.206;2022-08-25T02:28:42;6.88;;;3.55;;
16137;SDS011;8174;43.550;5.206;2022-08-25T02:31:12;7.97;;;3.35;;
16137;SDS011;8174;43.550;5.206;2022-08-25T02:33:40;7.57;;;3.70;;
16137;SDS011;8174;43.550;5.206;2022-08-25T02:36:08;11.35;;;4.20;;
16137;SDS011;8174;43.550;5.206;2022-08-25T02:38:36;9.75;;;3.85;;
16137;SDS011;8174;43.550;5.206;2022-08-25T02:41:10;6.55;;;3.67;;
16137;SDS011;8174;43.550;5.206;2022-08-25T02:43:39;8.15;;;3.42;;
16137;SDS011;8174;43.550;5.206;2022-08-25T02:46:08;5.15;;;3.55;;
16137;SDS011;8174;43.550;5.206;2022-08-25T02:48:37;5.68;;;3.88;;
16137;SDS011;8174;43.550;5.206;2022-08-25T02:51:05;7.43;;;3.70;;
16137;SDS011;8174;43.550;5.206;2022-08-25T02:53:34;8.63;;;3.88;;
16137;SDS011;8174;43.550;5.206;2022-08-25T02:56:02;8.02;;;3.42;;
16137;SDS011;8174;43.550;5.206;2022-08-25T02:58:32;8.68;;;3.60;;
16137;SDS011;8174;43.550;5.206;2022-08-25T03:01:02;6.75;;;3.50;;
16137;SDS011;8174;43.550;5.206;2022-08-25T03:03:34;6.28;;;3.50;;
16137;SDS011;8174;43.550;5.206;2022-08-25T03:06:01;6.97;;;3.65;;
16137;SDS011;8174;43.550;5.206;2022-08-25T03:08:29;5.35;;;3.72;;
16137;SDS011;8174;43.550;5.206;2022-08-25T03:10:57;7.00;;;3.92;;
16137;SDS011;8174;43.550;5.206;2022-08-25T03:13:25;4.93;;;3.88;;
16137;SDS011;8174;43.550;5.206;2022-08-25T03:15:52;6.82;;;3.53;;
16137;SDS011;8174;43.550;5.206;2022-08-25T03:18:20;4.90;;;3.70;;
16137;SDS011;8174;43.550;5.206;2022-08-25T03:20:49;8.07;;;3.83;;
16137;SDS011;8174;43.550;5.206;2022-08-25T03:23:17;7.40;;;4.35;;
16137;SDS011;8174;43.550;5.206;2022-08-25T03:25:45;6.75;;;3.92;;
16137;SDS011;8174;43.550;5.206;2022-08-25T03:28:30;6.68;;;4.13;;
16137;SDS011;8174;43.550;5.206;2022-08-25T03:30:58;7.95;;;4.18;;
16137;SDS011;8174;43.550;5.206;2022-08-25T03:33:26;10.10;;;3.70;;
16137;SDS011;8174;43.550;5.206;2022-08-25T03:35:55;8.32;;;3.80;;
16137;SDS011;8174;43.550;5.206;2022-08-25T03:38:24;6.13;;;3.47;;
16137;SDS011;8174;43.550;5.206;2022-08-25T03:40:51;8.65;;;3.63;;
16137;SDS011;8174;43.550;5.206;2022-08-25T03:43:19;8.63;;;3.78;;
16137;SDS011;8174;43.550;5.206;2022-08-25T03:45:48;9.18;;;4.00;;
16137;SDS011;8174;43.550;5.206;2022-08-25T03:48:17;6.93;;;3.67;;
16137;SDS011;8174;43.550;5.206;2022-08-25T03:50:45;4.57;;;3.63;;
16137;SDS011;8174;43.550;5.206;2022-08-25T03:53:15;6.93;;;3.80;;
16137;SDS011;8174;43.550;5.206;2022-08-25T03:55:43;6.55;;;3.60;;
16137;SDS011;8174;43.550;5.206;2022-08-25T03:58:10;7.57;;;3.80;;
16137;SDS011;8174;43.550;5.206;2022-08-25T04:00:38;9.82;;;4.57;;
16137;SDS011;8174;43.550;5.206;2022-08-25T04:03:05;9.20;;;3.70;;
16137;SDS011;8174;43.550;5.206;2022-08-25T04:05:33;6.22;;;3.70;;
16137;SDS011;8174;43.550;5.206;2022-08-25T04:08:00;7.00;;;4.22;;
16137;SDS011;8174;43.550;5.206;2022-08-25T04:10:29;5.80;;;3.67;;
16137;SDS011;8174;43.550;5.206;2022-08-25T04:12:58;6.22;;;3.80;;
16137;SDS011;8174;43.550;5.206;2022-08-25T04:15:26;5.75;;;4.05;;
16137;SDS011;8174;43.550;5.206;2022-08-25T04:17:53;8.07;;;3.97;;
16137;SDS011;8174;43.550;5.206;2022-08-25T04:20:23;4.85;;;3.58;;
16137;SDS011;8174;43.550;5.206;2022-08-25T04:22:50;6.97;;;3.45;;
16137;SDS011;8174;43.550;5.206;2022-08-25T04:25:19;5.55;;;4.00;;
16137;SDS011;8174;43.550;5.206;2022-08-25T04:27:48;6.63;;;3.58;;
16137;SDS011;8174;43.550;5.206;2022-08-25T04:30:16;7.82;;;3.55;;
16137;SDS011;8174;43.550;5.206;2022-08-25T04:32:43;6.20;;;3.30;;
16137;SDS011;8174;43.550;5.206;2022-08-25T04:35:12;9.15;;;3.63;;
16137;SDS011;8174;43.550;5.206;2022-08-25T04:37:40;5.63;;;3.42;;
16137;SDS011;8174;43.550;5.206;2022-08-25T04:40:08;5.28;;;3.30;;
16137;SDS011;8174;43.550;5.206;2022-08-25T04:42:36;5.82;;;3.60;;
16137;SDS011;8174;43.550;5.206;2022-08-25T04:45:06;7.10;;;3.40;;
16137;SDS011;8174;43.550;5.206;2022-08-25T04:47:35;7.45;;;3.25;;
16137;SDS011;8174;43.550;5.206;2022-08-25T04:50:04;8.13;;;3.30;;
16137;SDS011;8174;43.550;5.206;2022-08-25T04:52:31;6.07;;;3.28;;
16137;SDS011;8174;43.550;5.206;2022-08-25T04:54:59;9.13;;;3.40;;
16137;SDS011;8174;43.550;5.206;2022-08-25T04:57:26;6.88;;;3.10;;
16137;SDS011;8174;43.550;5.206;2022-08-25T04:59:54;6.55;;;2.90;;
16137;SDS011;8174;43.550;5.206;2022-08-25T05:02:23;6.10;;;3.53;;
16137;SDS011;8174;43.550;5.206;2022-08-25T05:04:51;5.25;;;2.80;;
16137;SDS011;8174;43.550;5.206;2022-08-25T05:07:21;10.55;;;3.85;;
16137;SDS011;8174;43.550;5.206;2022-08-25T05:09:48;6.82;;;3.40;;
16137;SDS011;8174;43.550;5.206;2022-08-25T05:12:15;6.85;;;3.30;;
16137;SDS011;8174;43.550;5.206;2022-08-25T05:14:44;7.80;;;3.22;;
16137;SDS011;8174;43.550;5.206;2022-08-25T05:17:12;8.02;;;3.10;;
16137;SDS011;8174;43.550;5.206;2022-08-25T05:19:41;14.02;;;3.63;;
16137;SDS011;8174;43.550;5.206;2022-08-25T05:22:09;7.63;;;3.30;;
16137;SDS011;8174;43.550;5.206;2022-08-25T05:24:36;7.43;;;3.25;;
16137;SDS011;8174;43.550;5.206;2022-08-25T05:27:04;12.43;;;3.47;;
16137;SDS011;8174;43.550;5.206;2022-08-25T05:29:31;8.18;;;3.20;;
16137;SDS011;8174;43.550;5.206;2022-08-25T05:31:59;10.52;;;3.40;;
16137;SDS011;8174;43.550;5.206;2022-08-25T05:34:26;11.73;;;3.30;;
16137;SDS011;8174;43.550;5.206;2022-08-25T05:36:56;7.25;;;3.65;;
16137;SDS011;8174;43.550;5.206;2022-08-25T05:39:24;10.60;;;3.20;;
16137;SDS011;8174;43.550;5.206;2022-08-25T05:41:51;6.47;;;3.42;;
16137;SDS011;8174;43.550;5.206;2022-08-25T05:44:19;12.48;;;3.97;;
16137;SDS011;8174;43.550;5.206;2022-08-25T05:46:47;5.93;;;3.50;;
16137;SDS011;8174;43.550;5.206;2022-08-25T05:49:15;5.80;;;3.83;;
16137;SDS011;8174;43.550;5.206;2022-08-25T05:51:42;7.75;;;3.40;;
16137;SDS011;8174;43.550;5.206;2022-08-25T05:54:11;5.75;;;3.33;;
16137;SDS011;8174;43.550;5.206;2022-08-25T05:56:39;6.53;;;3.33;;
16137;SDS011;8174;43.550;5.206;2022-08-25T05:59:06;8.93;;;3.10;;
16137;SDS011;8174;43.550;5.206;2022-08-25T06:01:34;5.20;;;3.00;;
16137;SDS011;8174;43.550;5.206;2022-08-25T06:04:19;5.45;;;2.83;;
16137;SDS011;8174;43.550;5.206;2022-08-25T06:06:47;5.65;;;3.05;;
16137;SDS011;8174;43.550;5.206;2022-08-25T06:09:19;5.30;;;3.28;;
16137;SDS011;8174;43.550;5.206;2022-08-25T06:11:46;6.80;;;3.00;;
16137;SDS011;8174;43.550;5.206;2022-08-25T06:14:14;8.00;;;2.90;;
16137;SDS011;8174;43.550;5.206;2022-08-25T06:16:41;5.30;;;3.10;;
16137;SDS011;8174;43.550;5.206;2022-08-25T06:19:09;5.93;;;2.72;;
16137;SDS011;8174;43.550;5.206;2022-08-25T06:21:37;5.43;;;2.88;;
16137;SDS011;8174;43.550;5.206;2022-08-25T06:24:05;6.38;;;2.80;;
16137;SDS011;8174;43.550;5.206;2022-08-25T06:26:35;5.43;;;2.90;;
16137;SDS011;8174;43.550;5.206;2022-08-25T06:29:03;5.00;;;2.60;;
16137;SDS011;8174;43.550;5.206;2022-08-25T06:31:30;5.30;;;3.13;;
16137;SDS011;8174;43.550;5.206;2022-08-25T06:33:58;5.00;;;2.65;;
16137;SDS011;8174;43.550;5.206;2022-08-25T06:36:25;4.85;;;2.60;;
16137;SDS011;8174;43.550;5.206;2022-08-25T06:38:53;8.85;;;2.88;;
16137;SDS011;8174;43.550;5.206;2022-08-25T06:41:20;5.30;;;2.58;;
16137;SDS011;8174;43.550;5.206;2022-08-25T06:43:50;4.68;;;2.75;;
16137;SDS011;8174;43.550;5.206;2022-08-25T06:46:18;5.75;;;2.55;;
16137;SDS011;8174;43.550;5.206;2022-08-25T06:48:46;9.23;;;3.00;;
16137;SDS011;8174;43.550;5.206;2022-08-25T06:51:15;6.68;;;2.40;;
16137;SDS011;8174;43.550;5.206;2022-08-25T06:53:44;6.28;;;2.58;;
16137;SDS011;8174;43.550;5.206;2022-08-25T06:56:11;4.22;;;2.30;;
16137;SDS011;8174;43.550;5.206;2022-08-25T06:58:39;4.00;;;2.53;;
16137;SDS011;8174;43.550;5.206;2022-08-25T07:01:09;5.65;;;2.50;;
16137;SDS011;8174;43.550;5.206;2022-08-25T07:03:37;5.63;;;2.70;;
16137;SDS011;8174;43.550;5.206;2022-08-25T07:06:05;7.38;;;2.60;;
16137;SDS011;8174;43.550;5.206;2022-08-25T07:08:32;4.68;;;2.30;;
16137;SDS011;8174;43.550;5.206;2022-08-25T07:11:03;5.25;;;2.35;;
16137;SDS011;8174;43.550;5.206;2022-08-25T07:13:31;7.03;;;2.40;;
16137;SDS011;8174;43.550;5.206;2022-08-25T07:15:59;3.78;;;2.28;;
16137;SDS011;8174;43.550;5.206;2022-08-25T07:18:28;7.70;;;2.60;;
16137;SDS011;8174;43.550;5.206;2022-08-25T07:20:57;6.78;;;2.50;;
16137;SDS011;8174;43.550;5.206;2022-08-25T07:23:27;7.03;;;2.55;;
16137;SDS011;8174;43.550;5.206;2022-08-25T07:25:55;3.83;;;2.30;;
16137;SDS011;8174;43.550;5.206;2022-08-25T07:28:23;5.82;;;2.55;;
16137;SDS011;8174;43.550;5.206;2022-08-25T07:30:50;5.18;;;2.33;;
16137;SDS011;8174;43.550;5.206;2022-08-25T07:33:18;3.97;;;2.22;;
16137;SDS011;8174;43.550;5.206;2022-08-25T07:35:47;5.32;;;2.35;;
16137;SDS011;8174;43.550;5.206;2022-08-25T07:38:14;7.22;;;2.55;;
16137;SDS011;8174;43.550;5.206;2022-08-25T07:40:41;6.10;;;2.35;;
16137;SDS011;8174;43.550;5.206;2022-08-25T07:43:09;4.55;;;2.30;;
16137;SDS011;8174;43.550;5.206;2022-08-25T07:45:37;5.10;;;2.22;;
16137;SDS011;8174;43.550;5.206;2022-08-25T07:48:06;4.40;;;2.20;;
16137;SDS011;8174;43.550;5.206;2022-08-25T07:50:34;6.55;;;2.45;;
16137;SDS011;8174;43.550;5.206;2022-08-25T07:53:04;5.90;;;2.53;;
16137;SDS011;8174;43.550;5.206;2022-08-25T07:55:32;3.55;;;2.30;;
16137;SDS011;8174;43.550;5.206;2022-08-25T07:58:01;3.58;;;2.25;;
16137;SDS011;8174;43.550;5.206;2022-08-25T08:00:29;3.67;;;2.08;;
16137;SDS011;8174;43.550;5.206;2022-08-25T08:02:58;6.32;;;2.60;;
16137;SDS011;8174;43.550;5.206;2022-08-25T08:05:26;5.43;;;2.20;;
16137;SDS011;8174;43.550;5.206;2022-08-25T08:07:54;5.90;;;2.22;;
16137;SDS011;8174;43.550;5.206;2022-08-25T08:10:23;4.03;;;2.33;;
16137;SDS011;8174;43.550;5.206;2022-08-25T08:12:51;4.93;;;2.45;;
16137;SDS011;8174;43.550;5.206;2022-08-25T08:15:19;4.55;;;2.40;;
16137;SDS011;8174;43.550;5.206;2022-08-25T08:17:47;7.57;;;2.40;;
16137;SDS011;8174;43.550;5.206;2022-08-25T08:20:15;12.00;;;3.55;;
16137;SDS011;8174;43.550;5.206;2022-08-25T08:22:43;9.27;;;4.38;;
16137;SDS011;8174;43.550;5.206;2022-08-25T08:25:10;8.48;;;3.38;;
16137;SDS011;8174;43.550;5.206;2022-08-25T08:27:39;5.95;;;3.03;;
16137;SDS011;8174;43.550;5.206;2022-08-25T08:30:10;7.10;;;3.00;;
16137;SDS011;8174;43.550;5.206;2022-08-25T08:32:38;8.18;;;3.33;;
16137;SDS011;8174;43.550;5.206;2022-08-25T08:35:06;5.50;;;2.55;;
16137;SDS011;8174;43.550;5.206;2022-08-25T08:37:34;6.93;;;2.80;;
16137;SDS011;8174;43.550;5.206;2022-08-25T08:40:07;13.57;;;3.08;;
16137;SDS011;8174;43.550;5.206;2022-08-25T08:42:38;7.70;;;2.72;;
16137;SDS011;8174;43.550;5.206;2022-08-25T08:45:18;5.25;;;2.60;;
16137;SDS011;8174;43.550;5.206;2022-08-25T08:47:51;9.52;;;2.58;;
16137;SDS011;8174;43.550;5.206;2022-08-25T08:50:25;4.32;;;2.20;;
16137;SDS011;8174;43.550;5.206;2022-08-25T08:52:56;3.10;;;2.05;;
16137;SDS011;8174;43.550;5.206;2022-08-25T08:55:25;4.75;;;2.42;;
16137;SDS011;8174;43.550;5.206;2022-08-25T08:57:54;4.18;;;2.45;;
16137;SDS011;8174;43.550;5.206;2022-08-25T09:00:25;6.13;;;2.97;;
16137;SDS011;8174;43.550;5.206;2022-08-25T09:02:53;12.35;;;4.38;;
16137;SDS011;8174;43.550;5.206;2022-08-25T09:05:23;21.95;;;5.28;;
16137;SDS011;8174;43.550;5.206;2022-08-25T09:07:53;15.10;;;4.70;;
16137;SDS011;8174;43.550;5.206;2022-08-25T09:10:21;10.68;;;4.85;;
16137;SDS011;8174;43.550;5.206;2022-08-25T09:12:52;7.55;;;4.10;;
16137;SDS011;8174;43.550;5.206;2022-08-25T09:15:25;8.88;;;4.57;;
16137;SDS011;8174;43.550;5.206;2022-08-25T09:18:17;9.10;;;4.57;;
16137;SDS011;8174;43.550;5.206;2022-08-25T09:20:52;10.25;;;4.18;;
16137;SDS011;8174;43.550;5.206;2022-08-25T09:23:25;9.38;;;4.32;;
16137;SDS011;8174;43.550;5.206;2022-08-25T09:25:59;9.02;;;4.57;;
16137;SDS011;8174;43.550;5.206;2022-08-25T09:28:30;11.50;;;4.95;;
16137;SDS011;8174;43.550;5.206;2022-08-25T09:30:59;8.95;;;4.50;;
16137;SDS011;8174;43.550;5.206;2022-08-25T09:33:29;11.20;;;4.18;;
16137;SDS011;8174;43.550;5.206;2022-08-25T09:35:58;10.30;;;4.68;;
16137;SDS011;8174;43.550;5.206;2022-08-25T09:38:26;9.35;;;3.70;;
16137;SDS011;8174;43.550;5.206;2022-08-25T09:40:57;10.88;;;3.63;;
16137;SDS011;8174;43.550;5.206;2022-08-25T09:43:28;11.35;;;3.80;;
16137;SDS011;8174;43.550;5.206;2022-08-25T09:45:57;10.43;;;3.33;;
16137;SDS011;8174;43.550;5.206;2022-08-25T09:48:25;9.77;;;3.17;;
16137;SDS011;8174;43.550;5.206;2022-08-25T09:50:56;7.40;;;3.00;;
16137;SDS011;8174;43.550;5.206;2022-08-25T09:53:24;4.97;;;2.85;;
16137;SDS011;8174;43.550;5.206;2022-08-25T09:55:55;5.55;;;2.65;;
16137;SDS011;8174;43.550;5.206;2022-08-25T09:58:23;6.07;;;2.83;;
16137;SDS011;8174;43.550;5.206;2022-08-25T10:01:01;4.50;;;2.50;;
16137;SDS011;8174;43.550;5.206;2022-08-25T10:03:29;6.72;;;2.92;;
16137;SDS011;8174;43.550;5.206;2022-08-25T10:06:00;12.13;;;2.70;;
16137;SDS011;8174;43.550;5.206;2022-08-25T10:08:30;8.27;;;2.75;;
16137;SDS011;8174;43.550;5.206;2022-08-25T10:10:59;5.22;;;2.47;;
16137;SDS011;8174;43.550;5.206;2022-08-25T10:13:33;4.95;;;2.55;;
16137;SDS011;8174;43.550;5.206;2022-08-25T10:16:02;5.03;;;2.20;;
16137;SDS011;8174;43.550;5.206;2022-08-25T10:18:30;4.28;;;2.33;;
16137;SDS011;8174;43.550;5.206;2022-08-25T10:21:04;6.90;;;2.60;;
16137;SDS011;8174;43.550;5.206;2022-08-25T10:23:32;4.45;;;2.30;;
16137;SDS011;8174;43.550;5.206;2022-08-25T10:26:02;5.50;;;2.30;;
16137;SDS011;8174;43.550;5.206;2022-08-25T10:28:32;3.63;;;2.15;;
16137;SDS011;8174;43.550;5.206;2022-08-25T10:31:01;3.72;;;2.20;;
16137;SDS011;8174;43.550;5.206;2022-08-25T10:33:34;6.45;;;1.80;;
16137;SDS011;8174;43.550;5.206;2022-08-25T10:36:09;4.93;;;2.22;;
16137;SDS011;8174;43.550;5.206;2022-08-25T10:38:41;3.95;;;1.95;;
16137;SDS011;8174;43.550;5.206;2022-08-25T10:41:14;5.05;;;2.10;;
16137;SDS011;8174;43.550;5.206;2022-08-25T10:43:43;6.47;;;1.80;;
16137;SDS011;8174;43.550;5.206;2022-08-25T10:46:13;3.08;;;1.77;;
16137;SDS011;8174;43.550;5.206;2022-08-25T10:48:48;3.80;;;1.83;;
16137;SDS011;8174;43.550;5.206;2022-08-25T10:51:28;4.15;;;1.90;;
16137;SDS011;8174;43.550;5.206;2022-08-25T10:53:59;3.38;;;1.70;;
16137;SDS011;8174;43.550;5.206;2022-08-25T10:56:30;4.43;;;1.90;;
16137;SDS011;8174;43.550;5.206;2022-08-25T11:01:53;3.20;;;1.95;;
16137;SDS011;8174;43.550;5.206;2022-08-25T11:04:25;1.92;;;1.67;;
16137;SDS011;8174;43.550;5.206;2022-08-25T11:06:57;4.45;;;1.85;;
16137;SDS011;8174;43.550;5.206;2022-08-25T11:09:28;3.75;;;1.77;;
16137;SDS011;8174;43.550;5.206;2022-08-25T11:11:57;4.22;;;2.17;;
16137;SDS011;8174;43.550;5.206;2022-08-25T11:14:28;3.13;;;1.80;;
16137;SDS011;8174;43.550;5.206;2022-08-25T11:16:58;3.80;;;1.77;;
16137;SDS011;8174;43.550;5.206;2022-08-25T11:19:28;3.33;;;1.63;;
16137;SDS011;8174;43.550;5.206;2022-08-25T11:21:59;3.13;;;1.65;;
16137;SDS011;8174;43.550;5.206;2022-08-25T11:24:34;3.97;;;1.95;;
16137;SDS011;8174;43.550;5.206;2022-08-25T11:27:05;4.75;;;1.52;;
16137;SDS011;8174;43.550;5.206;2022-08-25T11:29:36;4.65;;;2.00;;
16137;SDS011;8174;43.550;5.206;2022-08-25T11:32:05;3.60;;;1.88;;
16137;SDS011;8174;43.550;5.206;2022-08-25T11:34:34;3.88;;;1.70;;
16137;SDS011;8174;43.550;5.206;2022-08-25T11:37:09;3.55;;;1.55;;
16137;SDS011;8174;43.550;5.206;2022-08-25T11:42:29;3.65;;;1.70;;
16137;SDS011;8174;43.550;5.206;2022-08-25T11:45:02;3.92;;;1.90;;
16137;SDS011;8174;43.550;5.206;2022-08-25T11:47:35;2.75;;;1.50;;
16137;SDS011;8174;43.550;5.206;2022-08-25T11:50:07;1.90;;;1.67;;
16137;SDS011;8174;43.550;5.206;2022-08-25T11:52:44;4.63;;;1.67;;
16137;SDS011;8174;43.550;5.206;2022-08-25T11:55:14;3.47;;;1.80;;
16137;SDS011;8174;43.550;5.206;2022-08-25T11:57:43;4.65;;;1.60;;
16137;SDS011;8174;43.550;5.206;2022-08-25T12:00:12;4.68;;;1.60;;
16137;SDS011;8174;43.550;5.206;2022-08-25T12:02:41;3.08;;;1.50;;
16137;SDS011;8174;43.550;5.206;2022-08-25T12:05:10;3.70;;;1.88;;
16137;SDS011;8174;43.550;5.206;2022-08-25T12:07:59;5.13;;;1.48;;
16137;SDS011;8174;43.550;5.206;2022-08-25T12:10:55;3.65;;;1.40;;
16137;SDS011;8174;43.550;5.206;2022-08-25T12:13:25;3.50;;;1.58;;
16137;SDS011;8174;43.550;5.206;2022-08-25T12:15:54;5.03;;;1.60;;
16137;SDS011;8174;43.550;5.206;2022-08-25T12:18:42;2.45;;;1.63;;
16137;SDS011;8174;43.550;5.206;2022-08-25T12:24:09;3.30;;;1.70;;
16137;SDS011;8174;43.550;5.206;2022-08-25T12:26:40;3.45;;;1.85;;
16137;SDS011;8174;43.550;5.206;2022-08-25T12:29:10;6.22;;;1.70;;
16137;SDS011;8174;43.550;5.206;2022-08-25T12:31:44;2.95;;;1.70;;
16137;SDS011;8174;43.550;5.206;2022-08-25T12:34:30;3.80;;;1.80;;
16137;SDS011;8174;43.550;5.206;2022-08-25T12:37:03;2.72;;;1.60;;
16137;SDS011;8174;43.550;5.206;2022-08-25T12:39:33;4.63;;;2.00;;
16137;SDS011;8174;43.550;5.206;2022-08-25T12:42:02;4.40;;;1.58;;
16137;SDS011;8174;43.550;5.206;2022-08-25T12:44:35;3.22;;;1.80;;
16137;SDS011;8174;43.550;5.206;2022-08-25T12:47:11;3.08;;;1.50;;
16137;SDS011;8174;43.550;5.206;2022-08-25T12:49:38;2.70;;;1.85;;
16137;SDS011;8174;43.550;5.206;2022-08-25T12:52:09;2.72;;;1.60;;
16137;SDS011;8174;43.550;5.206;2022-08-25T12:54:44;5.07;;;1.48;;
16137;SDS011;8174;43.550;5.206;2022-08-25T12:57:20;3.40;;;1.70;;
16137;SDS011;8174;43.550;5.206;2022-08-25T12:59:48;7.03;;;1.90;;
16137;SDS011;8174;43.550;5.206;2022-08-25T13:05:10;3.53;;;1.80;;
16137;SDS011;8174;43.550;5.206;2022-08-25T13:07:55;3.42;;;1.80;;
16137;SDS011;8174;43.550;5.206;2022-08-25T13:10:28;3.95;;;1.65;;
16137;SDS011;8174;43.550;5.206;2022-08-25T13:13:01;4.75;;;1.90;;
16137;SDS011;8174;43.550;5.206;2022-08-25T13:15:35;8.48;;;1.95;;
16137;SDS011;8174;43.550;5.206;2022-08-25T13:18:15;3.22;;;1.80;;
16137;SDS011;8174;43.550;5.206;2022-08-25T13:20:44;3.65;;;1.73;;
16137;SDS011;8174;43.550;5.206;2022-08-25T13:23:15;4.65;;;2.08;;
16137;SDS011;8174;43.550;5.206;2022-08-25T13:25:47;5.88;;;1.98;;
16137;SDS011;8174;43.550;5.206;2022-08-25T13:28:20;4.32;;;1.80;;
16137;SDS011;8174;43.550;5.206;2022-08-25T13:30:54;2.88;;;1.60;;
16137;SDS011;8174;43.550;5.206;2022-08-25T13:33:23;5.00;;;2.00;;
16137;SDS011;8174;43.550;5.206;2022-08-25T13:35:51;3.03;;;1.95;;
16137;SDS011;8174;43.550;5.206;2022-08-25T13:38:40;5.88;;;1.90;;
16137;SDS011;8174;43.550;5.206;2022-08-25T13:41:09;4.55;;;1.98;;
16137;SDS011;8174;43.550;5.206;2022-08-25T13:43:37;3.30;;;1.67;;
16137;SDS011;8174;43.550;5.206;2022-08-25T13:46:05;5.45;;;1.95;;
16137;SDS011;8174;43.550;5.206;2022-08-25T13:48:34;2.97;;;1.70;;
16137;SDS011;8174;43.550;5.206;2022-08-25T13:51:07;3.22;;;2.10;;
16137;SDS011;8174;43.550;5.206;2022-08-25T13:53:35;4.50;;;2.13;;
16137;SDS011;8174;43.550;5.206;2022-08-25T13:56:03;4.30;;;1.90;;
16137;SDS011;8174;43.550;5.206;2022-08-25T13:58:33;4.85;;;2.03;;
16137;SDS011;8174;43.550;5.206;2022-08-25T14:01:07;6.05;;;2.22;;
16137;SDS011;8174;43.550;5.206;2022-08-25T14:03:36;5.15;;;2.60;;
16137;SDS011;8174;43.550;5.206;2022-08-25T14:06:05;4.15;;;1.80;;
16137;SDS011;8174;43.550;5.206;2022-08-25T14:08:34;3.35;;;1.80;;
16137;SDS011;8174;43.550;5.206;2022-08-25T14:11:05;3.33;;;2.40;;
16137;SDS011;8174;43.550;5.206;2022-08-25T14:13:35;6.47;;;2.08;;
16137;SDS011;8174;43.550;5.206;2022-08-25T14:16:12;5.38;;;2.10;;
16137;SDS011;8174;43.550;5.206;2022-08-25T14:18:45;4.80;;;2.00;;
16137;SDS011;8174;43.550;5.206;2022-08-25T14:21:23;4.25;;;2.10;;
16137;SDS011;8174;43.550;5.206;2022-08-25T14:23:52;5.70;;;2.10;;
16137;SDS011;8174;43.550;5.206;2022-08-25T14:26:20;6.40;;;2.63;;
16137;SDS011;8174;43.550;5.206;2022-08-25T14:28:49;4.95;;;2.40;;
16137;SDS011;8174;43.550;5.206;2022-08-25T14:31:19;8.10;;;2.80;;
16137;SDS011;8174;43.550;5.206;2022-08-25T14:33:50;3.03;;;2.42;;
16137;SDS011;8174;43.550;5.206;2022-08-25T14:36:19;6.45;;;2.38;;
16137;SDS011;8174;43.550;5.206;2022-08-25T14:38:47;4.80;;;2.30;;
16137;SDS011;8174;43.550;5.206;2022-08-25T14:41:15;5.70;;;2.20;;
16137;SDS011;8174;43.550;5.206;2022-08-25T14:43:42;8.10;;;2.38;;
16137;SDS011;8174;43.550;5.206;2022-08-25T14:46:17;5.63;;;2.25;;
16137;SDS011;8174;43.550;5.206;2022-08-25T14:48:46;5.75;;;2.05;;
16137;SDS011;8174;43.550;5.206;2022-08-25T14:51:16;8.88;;;2.55;;
16137;SDS011;8174;43.550;5.206;2022-08-25T14:53:43;4.55;;;2.50;;
16137;SDS011;8174;43.550;5.206;2022-08-25T14:56:11;6.72;;;2.47;;
16137;SDS011;8174;43.550;5.206;2022-08-25T14:58:39;7.07;;;2.80;;
16137;SDS011;8174;43.550;5.206;2022-08-25T15:01:07;6.65;;;2.75;;
16137;SDS011;8174;43.550;5.206;2022-08-25T15:03:41;8.38;;;2.90;;
16137;SDS011;8174;43.550;5.206;2022-08-25T15:06:09;9.10;;;2.70;;
16137;SDS011;8174;43.550;5.206;2022-08-25T15:08:37;7.25;;;3.10;;
16137;SDS011;8174;43.550;5.206;2022-08-25T15:11:28;6.55;;;2.30;;
16137;SDS011;8174;43.550;5.206;2022-08-25T15:13:56;6.80;;;2.67;;
16137;SDS011;8174;43.550;5.206;2022-08-25T15:16:26;5.38;;;2.42;;
16137;SDS011;8174;43.550;5.206;2022-08-25T15:18:57;6.10;;;2.42;;
16137;SDS011;8174;43.550;5.206;2022-08-25T15:21:25;5.95;;;2.72;;
16137;SDS011;8174;43.550;5.206;2022-08-25T15:23:52;6.70;;;2.72;;
16137;SDS011;8174;43.550;5.206;2022-08-25T15:26:20;7.18;;;2.63;;
16137;SDS011;8174;43.550;5.206;2022-08-25T15:28:48;6.38;;;2.70;;